Time;durP1;ratioP1;P1;durP2;ratioP2;P2;SDS_P1;SDS_P2;PMS_P1;PMS_P2;Temp;Humidity;BMP_temperature;BMP_pressure;BME280_temperature;BME280_humidity;BME280_pressure;Samples;Min_cycle;Max_cycle;Signal;HPM_P1;HPM_P2
2022/05/09 00:00:21;;;;;;;9.30;4.93;;;;;;;14.60;70.46;100517.84;4464366;32;33090;-57
2022/05/09 00:02:49;;;;;;;7.85;5.80;;;;;;;14.42;71.13;100516.25;4467784;32;33807;-57
2022/05/09 00:05:20;;;;;;;9.35;5.40;;;;;;;14.88;69.17;100514.63;4466197;32;34850;-57
2022/05/09 00:07:47;;;;;;;8.23;5.30;;;;;;;14.52;70.89;100514.87;4466452;32;33848;-57
2022/05/09 00:10:17;;;;;;;8.88;5.45;;;;;;;14.84;70.07;100520.53;4459923;32;33415;-57
2022/05/09 00:12:45;;;;;;;8.55;5.35;;;;;;;14.80;69.98;100505.59;4455959;32;34621;-57
2022/05/09 00:15:16;;;;;;;9.73;6.50;;;;;;;15.00;69.80;100516.81;4451994;32;33754;-57
2022/05/09 00:17:45;;;;;;;7.45;5.70;;;;;;;14.71;69.97;100504.41;4451340;32;33697;-57
2022/05/09 00:20:15;;;;;;;8.88;5.68;;;;;;;14.71;70.01;100504.41;4454947;32;32021;-57
2022/05/09 00:22:48;;;;;;;8.05;5.53;;;;;;;14.25;72.42;100512.94;4467599;32;33826;-57
2022/05/09 00:25:17;;;;;;;11.95;5.53;;;;;;;14.55;71.20;100515.91;4462309;32;34484;-57
2022/05/09 00:27:45;;;;;;;9.57;6.10;;;;;;;14.29;72.13;100517.47;4464376;32;34629;-57
2022/05/09 00:30:14;;;;;;;8.95;5.87;;;;;;;14.33;72.01;100514.16;4463031;32;33565;-57
2022/05/09 00:32:42;;;;;;;9.45;5.80;;;;;;;14.33;72.48;100514.16;4463337;32;33742;-57
2022/05/09 00:35:10;;;;;;;9.27;6.22;;;;;;;14.21;72.87;100511.03;4439237;32;32327;-58
2022/05/09 00:37:38;;;;;;;9.90;6.37;;;;;;;14.37;72.69;100520.41;4441928;32;33611;-58
2022/05/09 00:40:08;;;;;;;8.15;6.00;;;;;;;14.33;72.93;100514.16;4468876;32;33931;-57
2022/05/09 00:42:37;;;;;;;9.65;6.22;;;;;;;14.37;72.80;100517.78;4464145;32;34210;-57
2022/05/09 00:45:06;;;;;;;8.90;5.70;;;;;;;14.40;72.59;100524.84;4454044;32;32365;-57
2022/05/09 00:47:34;;;;;;;9.85;6.20;;;;;;;14.39;72.45;100517.81;4464678;32;33003;-57
2022/05/09 00:50:05;;;;;;;9.02;6.12;;;;;;;14.31;72.64;100526.25;4445221;32;32753;-57
2022/05/09 00:52:41;;;;;;;9.10;6.00;;;;;;;14.17;73.23;100527.38;4453782;32;34680;-58
2022/05/09 00:55:13;;;;;;;8.77;5.72;;;;;;;14.04;73.98;100522.47;4437729;32;97856;-57
2022/05/09 00:57:47;;;;;;;11.90;6.68;;;;;;;13.93;74.75;100525.50;4451901;32;33563;-57
2022/05/09 01:00:18;;;;;;;11.23;7.30;;;;;;;13.86;74.94;100525.19;4452985;32;33256;-58
2022/05/09 01:02:56;;;;;;;10.40;6.43;;;;;;;13.88;75.03;100533.94;4447945;32;32406;-57
2022/05/09 01:05:25;;;;;;;9.80;7.05;;;;;;;14.01;74.74;100525.84;4466249;32;33792;-58
2022/05/09 01:07:55;;;;;;;9.30;6.78;;;;;;;14.11;74.29;100527.12;4452253;32;34665;-57
2022/05/09 01:10:31;;;;;;;10.73;7.12;;;;;;;14.39;72.93;100533.47;4461831;32;35535;-58
2022/05/09 01:13:04;;;;;;;11.02;7.03;;;;;;;14.84;71.47;100523.16;4454256;32;33628;-58
2022/05/09 01:15:31;;;;;;;10.00;6.40;;;;;;;15.09;70.23;100525.88;4466981;32;33862;-57
2022/05/09 01:18:00;;;;;;;11.15;7.05;;;;;;;14.46;72.78;100530.28;4466642;32;33891;-57
2022/05/09 01:20:28;;;;;;;10.27;7.07;;;;;;;14.40;72.74;100535.25;4452943;32;32904;-57
2022/05/09 01:22:57;;;;;;;13.07;7.32;;;;;;;14.21;74.17;100539.69;4463178;32;33985;-57
2022/05/09 01:25:43;;;;;;;10.98;6.82;;;;;;;14.22;73.80;100536.28;4451716;32;34803;-58
2022/05/09 01:28:11;;;;;;;11.40;6.82;;;;;;;14.03;74.89;100533.72;4456891;32;33634;-58
2022/05/09 01:30:50;;;;;;;12.43;7.25;;;;;;;13.75;76.12;100548.13;4464793;32;34003;-57
2022/05/09 01:33:39;;;;;;;12.55;7.70;;;;;;;13.68;77.06;100541.78;4456573;32;33963;-57
2022/05/09 01:36:10;;;;;;;11.35;7.72;;;;;;;13.77;76.64;100541.28;4467355;32;33608;-58
2022/05/09 01:38:47;;;;;;;11.20;7.82;;;;;;;13.72;77.01;100537.59;4449802;32;33551;-58
2022/05/09 01:41:15;;;;;;;10.55;7.68;;;;;;;13.50;78.05;100536.66;4441729;32;34281;-57
2022/05/09 01:43:45;;;;;;;10.50;7.55;;;;;;;13.40;78.65;100537.06;4467151;32;34734;-57
2022/05/09 01:46:19;;;;;;;10.43;7.25;;;;;;;13.48;78.28;100538.31;4450825;32;32610;-57
2022/05/09 01:51:34;;;;;;;11.52;7.57;;;;;;;13.57;78.10;100536.09;4460738;32;33094;-57
2022/05/09 01:54:02;;;;;;;12.68;7.60;;;;;;;13.79;76.81;100539.66;4464110;32;32411;-57
2022/05/09 01:56:33;;;;;;;10.73;7.30;;;;;;;13.72;77.04;100538.50;4453681;32;35181;-57
2022/05/09 01:59:01;;;;;;;12.40;7.35;;;;;;;13.89;76.19;100536.63;4464791;32;32845;-57
2022/05/09 02:01:34;;;;;;;11.20;7.50;;;;;;;14.38;73.80;100540.41;4479539;26;33738;-85
2022/05/09 02:04:03;;;;;;;13.07;7.75;;;;;;;14.29;73.39;100538.31;4432597;32;32795;-85
2022/05/09 02:06:31;;;;;;;9.50;6.53;;;;;;;14.00;74.42;100538.78;4462849;32;33925;-85
2022/05/09 02:08:59;;;;;;;12.75;6.93;;;;;;;14.50;72.50;100532.19;4482174;26;32751;-58
2022/05/09 02:11:26;;;;;;;9.63;5.97;;;;;;;14.17;73.39;100537.78;4467684;32;33525;-58
2022/05/09 02:13:54;;;;;;;11.65;6.62;;;;;;;13.93;73.72;100537.66;4467071;32;33754;-57
2022/05/09 02:16:22;;;;;;;11.25;6.28;;;;;;;14.12;73.30;100549.75;4466570;32;33988;-57
2022/05/09 02:18:49;;;;;;;8.95;6.25;;;;;;;14.07;73.23;100538.25;4466686;32;33613;-57
2022/05/09 02:21:17;;;;;;;10.57;6.22;;;;;;;13.86;73.95;100540.81;4466306;32;33528;-57
2022/05/09 02:23:45;;;;;;;10.05;6.25;;;;;;;13.69;74.22;100542.66;4460616;32;34741;-58
2022/05/09 02:26:12;;;;;;;10.32;5.82;;;;;;;14.04;72.68;100545.91;4467167;32;34619;-57
2022/05/09 02:28:41;;;;;;;9.52;6.50;;;;;;;13.57;74.84;100543.91;4465546;32;33768;-58
2022/05/09 02:31:08;;;;;;;12.00;7.60;;;;;;;13.39;75.69;100543.09;4465294;32;33104;-57
2022/05/09 02:33:36;;;;;;;12.27;6.85;;;;;;;13.15;76.83;100543.72;4469010;32;34018;-57
2022/05/09 02:36:03;;;;;;;12.70;7.15;;;;;;;13.31;76.48;100549.66;4466312;32;34475;-57
2022/05/09 02:38:31;;;;;;;10.60;6.80;;;;;;;13.44;75.92;100556.31;4467257;32;33950;-58
2022/05/09 02:40:59;;;;;;;12.00;7.12;;;;;;;13.19;77.12;100549.94;4467139;32;34098;-57
2022/05/09 02:43:27;;;;;;;9.63;6.53;;;;;;;13.10;77.73;100555.63;4467982;32;33667;-57
2022/05/09 02:46:01;;;;;;;11.95;7.47;;;;;;;13.31;77.22;100554.88;4466810;32;33616;-58
2022/05/09 02:48:31;;;;;;;12.50;8.32;;;;;;;13.40;76.53;100550.06;4464177;32;34007;-57
2022/05/09 02:50:58;;;;;;;16.17;10.52;;;;;;;13.31;77.16;100550.56;4466757;32;34163;-58
2022/05/09 02:53:26;;;;;;;20.02;11.88;;;;;;;13.04;78.47;100555.34;4467495;32;33910;-56
2022/05/09 02:55:54;;;;;;;18.40;11.15;;;;;;;12.89;79.60;100558.09;4468417;32;33680;-58
2022/05/09 02:58:21;;;;;;;18.02;10.82;;;;;;;13.16;78.39;100555.91;4465825;32;35258;-57
2022/05/09 03:00:48;;;;;;;13.82;8.88;;;;;;;13.04;78.92;100557.94;4465115;32;33394;-57
2022/05/09 03:06:02;;;;;;;12.98;8.15;;;;;;;13.31;77.38;100554.88;4464593;32;34768;-57
2022/05/09 03:08:30;;;;;;;13.45;8.68;;;;;;;13.25;77.80;100557.12;4468480;32;33624;-57
2022/05/09 03:10:58;;;;;;;12.77;8.10;;;;;;;13.26;77.92;100556.34;4468506;32;33294;-57
2022/05/09 03:13:25;;;;;;;13.15;8.15;;;;;;;13.22;77.81;100559.63;4461028;32;34398;-58
2022/05/09 03:15:53;;;;;;;12.20;8.00;;;;;;;13.56;76.11;100557.75;4464996;32;33867;-57
2022/05/09 03:18:23;;;;;;;11.95;8.07;;;;;;;13.63;76.11;100556.31;4463675;32;32247;-57
2022/05/09 03:20:54;;;;;;;14.25;8.20;;;;;;;13.72;75.57;100558.44;4465860;32;33431;-58
2022/05/09 03:23:21;;;;;;;16.08;8.20;;;;;;;13.50;76.86;100566.97;4466889;32;33864;-58
2022/05/09 03:25:49;;;;;;;11.68;7.40;;;;;;;13.98;75.42;100567.38;4463927;32;33989;-58
2022/05/09 03:28:24;;;;;;;12.00;7.40;;;;;;;14.03;74.73;100570.19;4465048;32;33696;-58
2022/05/09 03:30:57;;;;;;;13.55;7.70;;;;;;;13.90;75.02;100559.22;4466634;32;33305;-57
2022/05/09 03:33:27;;;;;;;11.63;7.62;;;;;;;13.86;75.72;100562.53;4468137;32;34539;-58
2022/05/09 03:35:57;;;;;;;12.40;7.78;;;;;;;13.86;75.59;100561.63;4465921;32;34375;-57
2022/05/09 03:38:26;;;;;;;13.00;8.43;;;;;;;14.01;75.11;100561.44;4467488;32;34068;-57
2022/05/09 03:40:53;;;;;;;11.30;7.57;;;;;;;14.07;74.71;100570.38;4466248;32;33304;-58
2022/05/09 03:43:21;;;;;;;10.57;7.35;;;;;;;14.65;72.76;100573.69;4457239;32;33547;-57
2022/05/09 03:45:50;;;;;;;13.15;6.57;;;;;;;15.24;70.31;100574.25;4467669;32;34820;-57
2022/05/09 03:48:17;;;;;;;10.98;7.25;;;;;;;15.68;68.73;100573.31;4466334;32;33625;-58
2022/05/09 03:50:45;;;;;;;10.60;6.70;;;;;;;16.08;67.17;100572.13;4469287;32;33156;-57
2022/05/09 03:53:13;;;;;;;11.65;6.00;;;;;;;16.42;65.52;100572.41;4469902;32;33998;-58
2022/05/09 03:55:41;;;;;;;9.13;5.97;;;;;;;16.00;65.55;100581.44;4469799;32;33811;-58
2022/05/09 03:58:09;;;;;;;9.15;5.78;;;;;;;16.22;65.17;100585.69;4468931;32;33771;-57
2022/05/09 04:00:38;;;;;;;9.07;5.18;;;;;;;16.59;63.59;100576.47;4466270;32;33900;-57
2022/05/09 04:03:06;;;;;;;8.25;5.18;;;;;;;14.74;68.43;100574.94;4466703;32;33923;-57
2022/05/09 04:05:36;;;;;;;7.97;4.97;;;;;;;15.31;66.38;100584.97;4467628;32;34579;-57
2022/05/09 04:08:07;;;;;;;7.43;4.90;;;;;;;14.30;69.94;100586.13;4464935;32;32208;-58
2022/05/09 04:10:36;;;;;;;10.70;5.57;;;;;;;15.64;64.94;100584.47;4470386;32;34181;-58
2022/05/09 04:13:04;;;;;;;10.38;5.22;;;;;;;14.45;68.31;100585.87;4467695;32;34075;-57
2022/05/09 04:18:21;;;;;;;8.90;5.40;;;;;;;14.81;67.81;100589.09;4464965;32;33918;-57
2022/05/09 04:20:50;;;;;;;8.70;5.68;;;;;;;14.47;69.41;100584.22;4468695;32;34620;-57
2022/05/09 04:23:18;;;;;;;8.15;5.32;;;;;;;14.64;69.22;100584.94;4468633;32;33774;-57
2022/05/09 04:25:46;;;;;;;9.70;5.75;;;;;;;14.61;70.27;100592.63;4466521;32;34701;-58
2022/05/09 04:28:16;;;;;;;8.52;5.55;;;;;;;14.77;69.89;100599.37;4467593;32;34527;-57
2022/05/09 04:30:44;;;;;;;9.40;5.70;;;;;;;15.03;68.78;100592.59;4464880;32;33410;-57
2022/05/09 04:33:12;;;;;;;10.70;5.70;;;;;;;14.92;69.48;100589.53;4467177;32;33576;-57
2022/05/09 04:35:42;;;;;;;9.43;5.37;;;;;;;15.29;68.33;100591.84;4467400;32;34695;-57
2022/05/09 04:38:22;;;;;;;9.15;5.50;;;;;;;15.00;68.96;100602.91;4467967;32;34024;-58
2022/05/09 04:40:51;;;;;;;8.55;5.00;;;;;;;15.69;67.42;100602.94;4470120;32;32055;-58
2022/05/09 04:43:21;;;;;;;8.80;5.37;;;;;;;15.67;66.93;100604.59;4468160;32;32310;-58
2022/05/09 04:45:49;;;;;;;11.05;5.43;;;;;;;15.62;67.42;100606.13;4468669;32;34587;-58
2022/05/09 04:48:18;;;;;;;8.18;4.80;;;;;;;15.62;67.51;100600.91;4468126;32;33900;-57
2022/05/09 04:50:45;;;;;;;7.85;5.45;;;;;;;15.57;69.08;100603.37;4468751;32;33823;-58
2022/05/09 04:53:13;;;;;;;9.65;5.15;;;;;;;15.68;67.73;100602.06;4463424;32;34572;-58
2022/05/09 04:55:41;;;;;;;8.90;4.60;;;;;;;15.78;67.14;100607.63;4464970;32;34611;-58
2022/05/09 04:58:12;;;;;;;9.50;4.95;;;;;;;15.56;67.71;100612.00;4467095;32;33887;-58
2022/05/09 05:00:40;;;;;;;7.60;4.93;;;;;;;15.66;67.51;100619.34;4469498;32;33948;-57
2022/05/09 05:03:07;;;;;;;7.78;5.15;;;;;;;15.49;68.30;100610.91;4467692;32;33916;-58
2022/05/09 05:05:36;;;;;;;8.63;5.60;;;;;;;15.81;67.83;100615.56;4458949;32;32285;-58
2022/05/09 05:08:04;;;;;;;12.57;5.53;;;;;;;15.80;67.52;100609.47;4464392;32;34512;-58
2022/05/09 05:10:32;;;;;;;7.87;4.90;;;;;;;15.90;66.63;100611.56;4462598;32;34277;-58
2022/05/09 05:13:02;;;;;;;13.27;5.10;;;;;;;16.47;64.76;100617.91;4462803;32;34305;-58
2022/05/09 05:15:31;;;;;;;9.60;4.82;;;;;;;17.23;62.34;100602.91;4458312;32;33775;-58
2022/05/09 05:17:59;;;;;;;9.10;4.93;;;;;;;17.55;61.73;100603.88;4464457;32;34860;-58
2022/05/09 05:20:27;;;;;;;8.50;5.20;;;;;;;17.80;61.74;100617.69;4449435;32;34213;-58
2022/05/09 05:22:55;;;;;;;9.48;5.55;;;;;;;18.00;61.78;100616.56;4465268;32;34087;-58
2022/05/09 05:25:26;;;;;;;7.55;5.40;;;;;;;18.11;61.92;100618.59;4465082;32;33869;-58
2022/05/09 05:27:54;;;;;;;9.68;5.75;;;;;;;18.01;62.45;100618.34;4467587;32;34054;-59
2022/05/09 05:30:22;;;;;;;9.15;5.37;;;;;;;18.27;61.75;100616.44;4466618;32;33311;-58
2022/05/09 05:32:49;;;;;;;8.90;5.97;;;;;;;18.40;61.33;100621.97;4466315;32;34690;-58
2022/05/09 05:35:21;;;;;;;8.63;5.78;;;;;;;18.44;61.07;100629.09;4466607;32;33783;-58
2022/05/09 05:37:50;;;;;;;11.70;5.78;;;;;;;18.54;60.74;100630.22;4466737;32;34581;-58
2022/05/09 05:40:17;;;;;;;12.15;6.07;;;;;;;18.59;60.39;100624.22;4466129;32;33845;-58
2022/05/09 05:42:45;;;;;;;11.65;6.05;;;;;;;18.64;60.37;100627.88;4464626;32;34660;-58
2022/05/09 05:45:15;;;;;;;9.15;5.95;;;;;;;18.60;60.25;100635.59;4468043;32;33498;-58
2022/05/09 05:47:44;;;;;;;10.07;5.97;;;;;;;18.55;60.36;100643.38;4463920;32;34684;-58
2022/05/09 05:50:13;;;;;;;13.60;5.75;;;;;;;18.62;60.42;100634.81;4469822;32;33477;-58
2022/05/09 05:52:42;;;;;;;13.05;5.70;;;;;;;18.90;59.96;100640.78;4465062;32;34058;-58
2022/05/09 05:55:10;;;;;;;11.93;6.18;;;;;;;18.83;60.34;100644.09;4464951;32;34755;-58
2022/05/09 05:57:39;;;;;;;11.85;5.70;;;;;;;18.85;60.51;100645.00;4467159;32;34535;-58
2022/05/09 06:00:13;;;;;;;10.25;7.10;;;;;;;19.11;59.54;100639.53;4467479;32;33610;-58
2022/05/09 06:02:42;;;;;;;10.15;5.87;;;;;;;19.07;59.59;100638.56;4467172;32;33847;-58
2022/05/09 06:05:11;;;;;;;10.15;5.78;;;;;;;19.32;58.87;100645.28;4468009;32;34252;-59
2022/05/09 06:07:39;;;;;;;9.68;6.05;;;;;;;19.35;58.73;100645.31;4468029;32;34790;-58
2022/05/09 06:10:08;;;;;;;9.00;6.40;;;;;;;19.39;58.71;100652.44;4442390;32;33538;-58
2022/05/09 06:12:35;;;;;;;14.18;6.85;;;;;;;19.41;58.40;100656.00;4462045;32;34740;-58
2022/05/09 06:17:50;;;;;;;12.70;6.28;;;;;;;19.57;56.96;100651.06;4463776;32;33817;-58
2022/05/09 06:20:18;;;;;;;9.77;5.75;;;;;;;19.64;56.64;100658.22;4460596;32;33459;-58
2022/05/09 06:22:46;;;;;;;12.82;6.28;;;;;;;19.35;57.52;100650.56;4461020;32;33832;-58
2022/05/09 06:25:18;;;;;;;9.60;5.78;;;;;;;19.54;56.82;100664.13;4464390;32;33586;-58
2022/05/09 06:27:46;;;;;;;10.20;5.55;;;;;;;19.84;55.90;100662.19;4458546;32;32985;-58
2022/05/09 06:30:16;;;;;;;9.70;5.87;;;;;;;20.04;55.32;100666.97;4460984;32;33294;-58
2022/05/09 06:32:43;;;;;;;13.62;5.28;;;;;;;19.98;55.56;100664.22;4454562;32;34540;-58
2022/05/09 06:35:20;;;;;;;8.27;5.22;;;;;;;20.03;55.50;100662.59;4460485;32;33657;-58
2022/05/09 06:37:49;;;;;;;9.68;5.97;;;;;;;20.08;55.41;100660.91;4460336;32;33900;-58
2022/05/09 06:40:17;;;;;;;9.45;5.78;;;;;;;20.03;55.80;100665.22;4464143;32;33427;-58
2022/05/09 06:42:46;;;;;;;11.27;5.90;;;;;;;19.98;55.81;100669.47;4459314;32;34135;-59
2022/05/09 06:45:14;;;;;;;11.82;5.85;;;;;;;20.30;54.90;100666.59;4457165;32;33835;-58
2022/05/09 06:47:50;;;;;;;10.23;6.40;;;;;;;20.30;55.77;100669.22;4458853;32;33412;-58
2022/05/09 06:50:27;;;;;;;12.15;6.12;;;;;;;20.38;55.48;100675.53;4460940;32;34057;-58
2022/05/09 06:52:58;;;;;;;11.10;6.05;;;;;;;20.86;55.10;100674.66;4462369;32;33797;-58
2022/05/09 06:55:46;;;;;;;11.63;5.53;;;;;;;18.98;60.17;100681.22;4455961;32;34506;-59
2022/05/09 06:58:21;;;;;;;10.70;5.60;;;;;;;18.98;60.35;100683.84;4467602;32;34789;-59
2022/05/09 07:00:50;;;;;;;14.70;5.90;;;;;;;19.53;58.51;100686.91;4466723;32;33599;-58
2022/05/09 07:03:19;;;;;;;15.27;8.40;;;;;;;19.75;57.41;100688.28;4467205;32;34625;-59
2022/05/09 07:05:48;;;;;;;17.87;8.95;;;;;;;18.47;62.33;100690.41;4467183;32;34617;-58
2022/05/09 07:08:17;;;;;;;14.52;9.35;;;;;;;18.90;62.55;100693.28;4467583;32;33921;-58
2022/05/09 07:10:47;;;;;;;14.35;10.43;;;;;;;19.29;61.85;100687.22;4465007;32;34007;-58
2022/05/09 07:13:35;;;;;;;15.10;9.85;;;;;;;19.40;61.09;100692.72;4459687;32;33983;-58
2022/05/09 07:16:04;;;;;;;15.82;9.60;;;;;;;17.90;64.93;100692.28;4465610;32;34405;-58
2022/05/09 07:18:32;;;;;;;15.00;9.68;;;;;;;18.76;62.01;100694.66;4467842;32;34455;-58
2022/05/09 07:21:00;;;;;;;13.05;8.00;;;;;;;18.85;61.44;100703.69;4464295;32;33350;-58
2022/05/09 07:23:28;;;;;;;14.82;9.55;;;;;;;19.19;59.33;100695.72;4445290;32;33733;-58
2022/05/09 07:25:56;;;;;;;13.32;8.13;;;;;;;19.59;58.93;100702.81;4461054;32;34791;-58
2022/05/09 07:28:23;;;;;;;16.12;9.23;;;;;;;19.51;59.74;100700.84;4438069;32;33981;-58
2022/05/09 07:30:51;;;;;;;14.10;8.95;;;;;;;19.49;59.80;100699.91;4469663;32;33154;-59
2022/05/09 07:33:19;;;;;;;15.63;9.25;;;;;;;19.33;60.28;100701.31;4470056;32;33994;-59
2022/05/09 07:35:47;;;;;;;14.68;9.48;;;;;;;19.03;62.23;100702.34;4462631;32;33892;-58
2022/05/09 07:38:15;;;;;;;16.30;9.07;;;;;;;19.55;60.26;100700.09;4466335;32;33940;-58
2022/05/09 07:40:44;;;;;;;13.10;8.05;;;;;;;19.94;59.40;100699.22;4467623;32;33708;-58
2022/05/09 07:43:21;;;;;;;11.75;7.15;;;;;;;20.26;57.31;100698.97;4469715;32;34670;-58
2022/05/09 07:45:48;;;;;;;12.65;7.62;;;;;;;20.32;57.12;100707.87;4469660;32;33977;-58
2022/05/09 07:48:16;;;;;;;15.45;8.63;;;;;;;19.90;59.00;100707.87;4461927;32;34015;-58
2022/05/09 07:50:44;;;;;;;12.82;8.20;;;;;;;19.91;57.96;100702.63;4468957;32;34394;-59
2022/05/09 07:53:18;;;;;;;12.73;7.53;;;;;;;18.74;62.25;100707.72;4466726;32;33990;-58
2022/05/09 07:55:48;;;;;;;14.15;6.80;;;;;;;19.69;59.27;100703.91;4469655;32;33634;-58
2022/05/09 07:58:18;;;;;;;12.32;7.07;;;;;;;18.37;60.48;100701.50;4455271;32;33446;-58
2022/05/09 08:00:46;;;;;;;11.43;7.12;;;;;;;18.51;60.25;100709.72;4467654;32;34033;-59
2022/05/09 08:03:23;;;;;;;9.32;6.03;;;;;;;19.66;57.47;100706.44;4465497;32;33940;-58
2022/05/09 08:05:58;;;;;;;11.63;6.82;;;;;;;19.44;57.58;100712.97;4468242;32;33834;-59
2022/05/09 08:08:30;;;;;;;10.10;7.03;;;;;;;19.01;59.19;100712.81;4450589;32;33784;-58
2022/05/09 08:10:59;;;;;;;8.85;6.20;;;;;;;18.90;58.70;100714.28;4458266;32;34185;-58
2022/05/09 08:13:32;;;;;;;10.40;6.80;;;;;;;19.59;59.13;100709.81;4460720;32;33999;-58
2022/05/09 08:16:02;;;;;;;11.43;6.35;;;;;;;20.13;56.32;100706.62;4470128;32;33944;-58
2022/05/09 08:18:31;;;;;;;11.88;6.28;;;;;;;19.76;56.57;100710.19;4470104;32;33171;-58
2022/05/09 08:21:00;;;;;;;12.57;6.20;;;;;;;20.56;54.85;100706.56;4468202;32;33450;-59
2022/05/09 08:23:28;;;;;;;11.68;6.47;;;;;;;20.40;54.36;100705.41;4465300;32;33978;-58
2022/05/09 08:25:58;;;;;;;13.93;6.90;;;;;;;20.70;54.07;100712.09;4469077;32;33846;-59
2022/05/09 08:28:25;;;;;;;12.60;6.22;;;;;;;20.64;53.77;100707.63;4470064;32;34168;-58
2022/05/09 08:30:52;;;;;;;8.10;6.03;;;;;;;20.89;53.72;100701.03;4469425;32;33409;-59
2022/05/09 08:33:26;;;;;;;9.55;6.18;;;;;;;20.45;54.53;100708.97;4468385;32;33827;-58
2022/05/09 08:35:54;;;;;;;8.68;5.87;;;;;;;21.62;51.91;100695.19;4469621;32;33887;-58
2022/05/09 08:38:22;;;;;;;10.73;5.62;;;;;;;22.04;50.77;100696.59;4465055;32;34097;-59
2022/05/09 08:40:50;;;;;;;7.82;4.78;;;;;;;21.78;51.69;100694.50;4468852;32;34856;-58
2022/05/09 08:43:45;;;;;;;9.80;5.25;;;;;;;21.44;53.92;100692.25;4469901;32;34036;-58
2022/05/09 08:46:24;;;;;;;8.48;4.93;;;;;;;22.42;48.87;100696.19;4466113;32;33918;-59
2022/05/09 08:49:13;;;;;;;7.93;5.05;;;;;;;22.67;49.47;100691.16;4467697;32;34371;-58
2022/05/09 08:52:14;;;;;;;12.25;5.05;;;;;;;22.75;48.17;100695.66;4463987;32;30761;-59
2022/05/09 08:54:42;;;;;;;8.55;5.53;;;;;;;21.35;52.01;100699.13;4445803;32;34047;-58
2022/05/09 08:57:20;;;;;;;9.57;4.57;;;;;;;20.91;53.56;100704.56;4456072;32;33878;-59
2022/05/09 08:59:51;;;;;;;9.07;5.15;;;;;;;20.86;51.62;100700.09;4460958;32;33608;-58
2022/05/09 09:02:25;;;;;;;8.48;4.60;;;;;;;21.88;52.02;100702.53;4464023;32;33511;-58
2022/05/09 09:04:55;;;;;;;8.43;4.40;;;;;;;22.68;47.51;100703.50;4467108;32;33646;-58
2022/05/09 09:07:36;;;;;;;8.60;3.67;;;;;;;22.89;45.16;100698.41;4465025;32;33106;-58
2022/05/09 09:10:09;;;;;;;9.90;4.30;;;;;;;22.83;44.67;100698.34;4450215;32;33829;-59
2022/05/09 09:12:49;;;;;;;7.47;4.53;;;;;;;22.56;46.45;100699.88;4451780;32;33200;-58
2022/05/09 09:15:32;;;;;;;6.00;3.75;;;;;;;22.49;43.84;100698.03;4455330;32;33953;-58
2022/05/09 09:18:24;;;;;;;5.85;3.70;;;;;;;22.24;43.47;100709.16;4468583;32;33670;-58
2022/05/09 09:21:07;;;;;;;8.43;4.05;;;;;;;22.62;42.83;100699.03;4467987;32;34380;-59
2022/05/09 09:23:44;;;;;;;8.35;4.15;;;;;;;22.28;44.63;100708.34;4458773;32;33527;-59
2022/05/09 09:26:36;;;;;;;7.78;4.50;;;;;;;22.96;41.55;100702.84;4465702;32;33473;-59
2022/05/09 09:29:18;;;;;;;7.37;3.90;;;;;;;22.96;41.08;100700.22;4463189;32;33996;-58
2022/05/09 09:31:55;;;;;;;6.35;3.78;;;;;;;22.21;43.64;100706.47;4452229;32;34297;-59
2022/05/09 09:34:46;;;;;;;6.90;3.40;;;;;;;22.17;43.12;100710.81;4462366;32;33593;-58
2022/05/09 09:37:18;;;;;;;6.05;4.00;;;;;;;22.04;43.85;100699.25;4456507;32;34538;-59
2022/05/09 09:39:46;;;;;;;7.97;3.90;;;;;;;23.07;39.91;100702.09;4466791;32;33326;-58
2022/05/09 09:42:13;;;;;;;6.55;4.00;;;;;;;22.34;42.36;100703.12;4467471;32;32267;-60
2022/05/09 09:44:44;;;;;;;10.32;4.03;;;;;;;21.73;44.14;100698.84;4468767;32;34258;-59
2022/05/09 09:47:12;;;;;;;7.03;4.10;;;;;;;20.98;42.71;100701.19;4465752;32;33565;-59
2022/05/09 09:50:19;;;;;;;5.53;3.78;;;;;;;21.85;44.04;100700.75;4464434;32;34684;-58
2022/05/09 09:52:54;;;;;;;10.68;3.92;;;;;;;22.70;43.00;100701.75;4463520;32;33989;-59
2022/05/09 09:55:28;;;;;;;8.32;3.40;;;;;;;22.92;43.69;100697.53;4464834;32;32083;-59
2022/05/09 09:57:58;;;;;;;7.30;3.92;;;;;;;22.96;42.19;100699.34;4466962;32;34759;-60
2022/05/09 10:00:30;;;;;;;7.40;4.15;;;;;;;22.81;44.39;100694.78;4466849;32;34196;-59
2022/05/09 10:03:20;;;;;;;8.02;4.05;;;;;;;22.04;43.54;100699.25;4458363;32;33892;-59
2022/05/09 10:05:50;;;;;;;6.00;3.80;;;;;;;22.23;44.08;100687.13;4461581;32;32028;-59
2022/05/09 10:08:28;;;;;;;5.85;3.70;;;;;;;21.92;42.75;100684.16;4467202;32;33921;-59
2022/05/09 10:11:06;;;;;;;8.23;3.50;;;;;;;21.58;42.25;100688.09;4470989;32;33645;-59
2022/05/09 10:14:02;;;;;;;5.95;3.85;;;;;;;22.19;41.17;100677.41;4480982;32;33832;-59
2022/05/09 10:16:30;;;;;;;;;;;;;;;22.90;42.28;100673.75;4479397;32;33108;-59
2022/05/09 10:19:07;;;;;;;6.30;3.85;;;;;;;23.74;40.57;100672.59;4465544;32;34033;-59
2022/05/09 10:24:47;;;;;;;5.90;3.97;;;;;;;23.46;40.59;100667.13;4465230;32;34776;-59
2022/05/09 10:27:22;;;;;;;7.60;4.35;;;;;;;24.40;40.17;100672.81;4470842;32;33274;-60
2022/05/09 10:29:54;;;;;;;6.87;4.65;;;;;;;23.69;39.73;100661.97;4481215;31;33764;-59
2022/05/09 10:32:32;;;;;;;7.57;3.92;;;;;;;23.41;40.73;100654.75;4495106;31;33498;-60
2022/05/09 10:35:21;;;;;;;6.43;4.00;;;;;;;24.85;39.53;100649.94;4467275;32;33938;-59
2022/05/09 10:37:54;;;;;;;6.07;4.10;;;;;;;23.65;38.62;100652.25;4482268;32;33209;-58
2022/05/09 10:40:46;;;;;;;7.40;4.13;;;;;;;24.43;38.48;100646.34;4466227;32;33761;-59
2022/05/09 10:43:29;;;;;;;5.55;3.80;;;;;;;23.94;37.21;100643.59;4468912;32;34339;-59
2022/05/09 10:45:57;;;;;;;6.78;4.10;;;;;;;23.60;37.05;100635.47;4480027;31;34449;-59
2022/05/09 10:48:41;;;;;;;7.47;4.60;;;;;;;24.40;36.80;100641.06;4468875;32;33510;-59
2022/05/09 10:51:12;;;;;;;12.73;4.43;;;;;;;25.00;36.60;100627.84;4475142;31;34092;-59
2022/05/09 10:54:29;;;;;;;5.87;4.15;;;;;;;25.35;35.62;100631.34;4465033;32;34767;-60
2022/05/09 10:57:03;;;;;;;6.30;4.15;;;;;;;24.81;36.55;100629.63;4463121;31;33905;-59
2022/05/09 10:59:32;;;;;;;5.10;3.70;;;;;;;25.77;36.25;100622.34;4483458;31;33451;-60
2022/05/09 11:02:22;;;;;;;6.57;3.70;;;;;;;26.61;34.54;100618.34;4470932;32;34043;-59
2022/05/09 11:04:49;;;;;;;7.00;3.90;;;;;;;26.71;34.33;100616.47;4470913;31;33856;-59
2022/05/09 11:07:35;;;;;;;6.28;4.60;;;;;;;24.90;37.13;100620.81;4485314;31;34374;-59
2022/05/09 11:10:05;;;;;;;6.35;4.30;;;;;;;25.06;35.67;100616.34;4469953;32;33418;-59
2022/05/09 11:12:36;;;;;;;6.95;3.53;;;;;;;25.64;34.94;100610.91;4488803;31;33756;-59
2022/05/09 11:15:27;;;;;;;7.47;4.15;;;;;;;25.56;34.94;100610.06;4485360;31;33263;-59
2022/05/09 11:18:05;;;;;;;7.90;4.35;;;;;;;26.09;34.50;100598.31;4474327;31;34114;-60
2022/05/09 11:20:52;;;;;;;7.82;4.65;;;;;;;25.86;35.39;100598.44;4479440;32;34477;-59
2022/05/09 11:23:46;;;;;;;5.60;3.92;;;;;;;26.57;34.01;100599.75;4487545;31;34433;-59
2022/05/09 11:26:31;;;;;;;7.55;4.22;;;;;;;26.24;33.81;100591.16;4449814;32;31941;-59
2022/05/09 11:29:22;;;;;;;6.35;3.87;;;;;;;26.22;33.17;100588.50;4467863;32;34505;-59
2022/05/09 11:32:17;;;;;;;5.35;3.67;;;;;;;27.71;31.92;100583.50;4494102;31;34081;-59
2022/05/09 11:35:09;;;;;;;7.60;3.87;;;;;;;28.07;30.61;100581.28;4483619;31;34075;-59
2022/05/09 11:37:58;;;;;;;5.20;3.65;;;;;;;26.43;32.84;100581.28;4478043;32;34013;-60
2022/05/09 11:40:28;;;;;;;7.70;4.12;;;;;;;25.95;32.21;100573.63;4486036;31;33600;-59
2022/05/09 11:43:39;;;;;;;6.45;3.50;;;;;;;25.47;32.86;100578.25;4471746;32;33442;-59
2022/05/09 11:46:35;;;;;;;10.35;4.43;;;;;;;27.09;30.60;100571.84;4483585;32;34427;-59
2022/05/09 11:49:11;;;;;;;6.80;3.72;;;;;;;26.41;33.64;100570.66;4472449;32;33740;-60
2022/05/09 11:51:48;;;;;;;9.55;3.80;;;;;;;24.39;37.52;100570.41;4485391;31;34198;-59
2022/05/09 11:54:32;;;;;;;8.35;3.70;;;;;;;23.54;40.98;100574.62;4468352;32;33877;-59
2022/05/09 11:57:07;;;;;;;7.47;3.08;;;;;;;23.22;39.47;100585.94;4464683;32;33937;-59
2022/05/09 11:59:36;;;;;;;7.62;4.10;;;;;;;23.15;36.94;100605.25;4452700;32;33786;-59